sensor_id;sensor_type;location;lat;lon;timestamp;P1;P2;P0
45788;PMS7003;31492;54.856;26.318;2023-06-14T05:52:04;6;4.9;4
45788;PMS7003;31492;54.856;26.318;2023-06-14T05:56:40;4.8;4.1;3.2
45788;PMS7003;31492;54.856;26.318;2023-06-14T06:01:40;5.2;4.4;3.6
45788;PMS7003;31492;54.856;26.318;2023-06-14T06:06:40;4.9;4.4;3.5
45788;PMS7003;31492;54.856;26.318;2023-06-14T06:12:05;8.8;7.5;6.3
45788;PMS7003;31492;54.856;26.318;2023-06-14T06:17:02;10.3;9.1;7
45788;PMS7003;31492;54.856;26.318;2023-06-14T06:22:04;6;5;4.1
45788;PMS7003;31492;54.856;26.318;2023-06-14T06:26:50;6.4;5.2;4.1
45788;PMS7003;31492;54.856;26.318;2023-06-14T06:31:56;5.2;4.8;4
45788;PMS7003;31492;54.856;26.318;2023-06-14T06:37:04;6.2;5.1;4.3
45788;PMS7003;31492;54.856;26.318;2023-06-14T06:41:48;5.6;5.2;4.2
45788;PMS7003;31492;54.856;26.318;2023-06-14T06:46:48;6.6;5.2;4.2
45788;PMS7003;31492;54.856;26.318;2023-06-14T06:52:05;6;5.1;4
45788;PMS7003;31492;54.856;26.318;2023-06-14T06:56:54;5.6;4.6;3.7
45788;PMS7003;31492;54.856;26.318;2023-06-14T07:01:48;5.8;5.1;4.1
45788;PMS7003;31492;54.856;26.318;2023-06-14T07:06:48;5.8;5;3.9
45788;PMS7003;31492;54.856;26.318;2023-06-14T07:11:41;5.4;4.6;3.7
45788;PMS7003;31492;54.856;26.318;2023-06-14T07:17:04;5.8;4.7;3.6
45788;PMS7003;31492;54.856;26.318;2023-06-14T07:21:56;5.4;4.5;3.6
45788;PMS7003;31492;54.856;26.318;2023-06-14T07:26:40;5.1;4.8;4
45788;PMS7003;31492;54.856;26.318;2023-06-14T07:31:54;4.7;4.1;3.6
45788;PMS7003;31492;54.856;26.318;2023-06-14T07:37:16;5.4;4.2;3.4
45788;PMS7003;31492;54.856;26.318;2023-06-14T07:41:40;5.3;4.4;3.6
45788;PMS7003;31492;54.856;26.318;2023-06-14T07:46:40;4.5;4;3.2
45788;PMS7003;31492;54.856;26.318;2023-06-14T07:51:40;4.8;4;3.1
45788;PMS7003;31492;54.856;26.318;2023-06-14T07:56:40;4;3.5;2.8
45788;PMS7003;31492;54.856;26.318;2023-06-14T08:01:48;3.4;2.9;2.3
45788;PMS7003;31492;54.856;26.318;2023-06-14T08:06:56;3.4;3.2;2.3
45788;PMS7003;31492;54.856;26.318;2023-06-14T08:11:40;3.3;2.6;2
45788;PMS7003;31492;54.856;26.318;2023-06-14T08:17:28;3.4;2.5;2
45788;PMS7003;31492;54.856;26.318;2023-06-14T08:22:10;2.8;2.3;1.9
45788;PMS7003;31492;54.856;26.318;2023-06-14T08:27:10;2.7;2.4;2.1
45788;PMS7003;31492;54.856;26.318;2023-06-14T08:31:40;2.7;2.4;2
45788;PMS7003;31492;54.856;26.318;2023-06-14T08:37:00;3.5;2.9;2.2
45788;PMS7003;31492;54.856;26.318;2023-06-14T08:42:02;3;2.8;2.3
45788;PMS7003;31492;54.856;26.318;2023-06-14T08:47:14;3.7;3.5;2.9
45788;PMS7003;31492;54.856;26.318;2023-06-14T08:52:08;3.5;2.8;2.3
45788;PMS7003;31492;54.856;26.318;2023-06-14T08:56:44;3.2;2.8;2.2
45788;PMS7003;31492;54.856;26.318;2023-06-14T09:01:50;3.1;2.9;2.3
45788;PMS7003;31492;54.856;26.318;2023-06-14T09:06:46;2.5;2.2;1.8
45788;PMS7003;31492;54.856;26.318;2023-06-14T09:12:10;2.6;2;1.6
45788;PMS7003;31492;54.856;26.318;2023-06-14T09:17:13;4.4;3.2;2.2
45788;PMS7003;31492;54.856;26.318;2023-06-14T09:21:44;3.3;2.5;2
45788;PMS7003;31492;54.856;26.318;2023-06-14T09:27:14;2.7;1.7;1.5
45788;PMS7003;31492;54.856;26.318;2023-06-14T09:31:40;3.3;2.3;1.9
45788;PMS7003;31492;54.856;26.318;2023-06-14T09:36:44;3.2;2.7;2.1
45788;PMS7003;31492;54.856;26.318;2023-06-14T09:41:40;2.7;2.3;1.9
45788;PMS7003;31492;54.856;26.318;2023-06-14T09:46:40;2.4;2;1.7
45788;PMS7003;31492;54.856;26.318;2023-06-14T09:51:42;2.3;1.9;1.4
45788;PMS7003;31492;54.856;26.318;2023-06-14T09:56:56;2.5;2.2;1.6
45788;PMS7003;31492;54.856;26.318;2023-06-14T10:01:55;4.1;3.5;2.8
45788;PMS7003;31492;54.856;26.318;2023-06-14T10:07:08;2.1;1.6;1.2
45788;PMS7003;31492;54.856;26.318;2023-06-14T10:11:54;2.4;1.8;1.4
45788;PMS7003;31492;54.856;26.318;2023-06-14T10:16:45;2.3;1.9;1.6
45788;PMS7003;31492;54.856;26.318;2023-06-14T10:22:06;2;1.6;1.3
45788;PMS7003;31492;54.856;26.318;2023-06-14T10:27:16;2.6;1.9;1.6
45788;PMS7003;31492;54.856;26.318;2023-06-14T10:32:10;1.8;1.5;1.3
45788;PMS7003;31492;54.856;26.318;2023-06-14T10:36:42;2;1.6;1.3
45788;PMS7003;31492;54.856;26.318;2023-06-14T10:41:41;2.1;1.8;1.5
45788;PMS7003;31492;54.856;26.318;2023-06-14T10:46:55;2.7;2.1;1.7
45788;PMS7003;31492;54.856;26.318;2023-06-14T10:51:57;3.2;2.5;1.9
45788;PMS7003;31492;54.856;26.318;2023-06-14T10:57:00;2.8;2;1.7
45788;PMS7003;31492;54.856;26.318;2023-06-14T11:01:53;2.3;2.1;1.6
45788;PMS7003;31492;54.856;26.318;2023-06-14T11:07:10;2.6;2.1;1.7
45788;PMS7003;31492;54.856;26.318;2023-06-14T11:11:53;2.2;1.9;1.5
45788;PMS7003;31492;54.856;26.318;2023-06-14T11:17:16;2.8;2.3;1.8
45788;PMS7003;31492;54.856;26.318;2023-06-14T11:22:05;2;2;1.7
45788;PMS7003;31492;54.856;26.318;2023-06-14T11:26:56;2.4;2.1;1.7
45788;PMS7003;31492;54.856;26.318;2023-06-14T11:32:10;3.1;2.1;1.9
45788;PMS7003;31492;54.856;26.318;2023-06-14T11:36:56;2.3;2.2;1.9
45788;PMS7003;31492;54.856;26.318;2023-06-14T11:42:06;2.7;2.3;2
45788;PMS7003;31492;54.856;26.318;2023-06-14T11:46:56;2.1;2.1;1.9
45788;PMS7003;31492;54.856;26.318;2023-06-14T11:52:10;2.8;2.4;1.8
45788;PMS7003;31492;54.856;26.318;2023-06-14T11:56:46;2.7;2.1;1.7
45788;PMS7003;31492;54.856;26.318;2023-06-14T12:02:14;2.7;2.2;1.9
45788;PMS7003;31492;54.856;26.318;2023-06-14T12:06:40;2.9;2.5;1.9
45788;PMS7003;31492;54.856;26.318;2023-06-14T12:11:40;2.8;2.2;1.9
45788;PMS7003;31492;54.856;26.318;2023-06-14T12:16:41;3.3;2.5;2.1
45788;PMS7003;31492;54.856;26.318;2023-06-14T12:21:40;3.1;2.4;1.9
45788;PMS7003;31492;54.856;26.318;2023-06-14T12:27:10;2.8;2.6;1.9
45788;PMS7003;31492;54.856;26.318;2023-06-14T12:32:08;3.6;2.1;1.7
45788;PMS7003;31492;54.856;26.318;2023-06-14T12:36:40;3.3;2.8;2.2
45788;PMS7003;31492;54.856;26.318;2023-06-14T12:41:40;2.3;2.3;1.8
45788;PMS7003;31492;54.856;26.318;2023-06-14T12:47:09;2.9;2.5;2.1
45788;PMS7003;31492;54.856;26.318;2023-06-14T12:51:40;4.3;3.1;2.4
45788;PMS7003;31492;54.856;26.318;2023-06-14T12:56:58;3.1;2.7;2.2
45788;PMS7003;31492;54.856;26.318;2023-06-14T13:02:12;3.4;2.9;2.3
45788;PMS7003;31492;54.856;26.318;2023-06-14T13:06:40;2.7;2.2;1.8
45788;PMS7003;31492;54.856;26.318;2023-06-14T13:12:09;3.5;2.7;2.2
45788;PMS7003;31492;54.856;26.318;2023-06-14T13:16:46;3.7;2.9;2.2
45788;PMS7003;31492;54.856;26.318;2023-06-14T13:21:40;3.5;2.6;2.1
45788;PMS7003;31492;54.856;26.318;2023-06-14T13:26:56;3.6;2.7;2.2
45788;PMS7003;31492;54.856;26.318;2023-06-14T13:31:53;3.6;3;2.1
45788;PMS7003;31492;54.856;26.318;2023-06-14T13:36:44;3.2;2.6;2.2
45788;PMS7003;31492;54.856;26.318;2023-06-14T13:41:40;3.5;3;2.6
45788;PMS7003;31492;54.856;26.318;2023-06-14T13:47:10;3.7;2.8;2.3
45788;PMS7003;31492;54.856;26.318;2023-06-14T13:51:40;4.6;3.1;2.5
45788;PMS7003;31492;54.856;26.318;2023-06-14T13:57:00;3.4;2.7;2.3
45788;PMS7003;31492;54.856;26.318;2023-06-14T14:02:07;3.5;2.9;2.2
45788;PMS7003;31492;54.856;26.318;2023-06-14T14:06:40;4.3;2.8;2.4
45788;PMS7003;31492;54.856;26.318;2023-06-14T14:11:54;3.2;2.8;2.2
45788;PMS7003;31492;54.856;26.318;2023-06-14T14:16:40;2.7;2.3;1.8
45788;PMS7003;31492;54.856;26.318;2023-06-14T14:21:40;3.2;2.7;2.1
45788;PMS7003;31492;54.856;26.318;2023-06-14T14:27:05;3.2;2.7;2.3
45788;PMS7003;31492;54.856;26.318;2023-06-14T14:31:40;3.7;3.1;2.5
45788;PMS7003;31492;54.856;26.318;2023-06-14T14:36:44;2.7;2.5;2
45788;PMS7003;31492;54.856;26.318;2023-06-14T14:42:07;3.4;2.8;2.3
45788;PMS7003;31492;54.856;26.318;2023-06-14T14:46:54;2.6;2;1.5
45788;PMS7003;31492;54.856;26.318;2023-06-14T14:51:40;3.5;3.3;2.6
45788;PMS7003;31492;54.856;26.318;2023-06-14T14:56:58;3.3;3;2.5
45788;PMS7003;31492;54.856;26.318;2023-06-14T15:01:50;3.8;3.1;2.5
45788;PMS7003;31492;54.856;26.318;2023-06-14T15:07:03;3.6;3.1;2.6
45788;PMS7003;31492;54.856;26.318;2023-06-14T15:12:10;4.1;3.6;3
45788;PMS7003;31492;54.856;26.318;2023-06-14T15:16:44;12;11.1;8.4
45788;PMS7003;31492;54.856;26.318;2023-06-14T15:21:40;3.9;3.1;2.4
45788;PMS7003;31492;54.856;26.318;2023-06-14T15:27:03;3.6;3.1;2.6
45788;PMS7003;31492;54.856;26.318;2023-06-14T15:31:56;3.8;3.4;2.6
45788;PMS7003;31492;54.856;26.318;2023-06-14T15:36:47;4.3;3.1;2.4
45788;PMS7003;31492;54.856;26.318;2023-06-14T15:41:40;4.2;3.3;2.7
45788;PMS7003;31492;54.856;26.318;2023-06-14T15:46:54;3.5;3.2;2.7
45788;PMS7003;31492;54.856;26.318;2023-06-14T15:51:41;3.6;3.3;2.8
45788;PMS7003;31492;54.856;26.318;2023-06-14T15:56:46;3.4;3.2;2.6
45788;PMS7003;31492;54.856;26.318;2023-06-14T16:01:50;3.6;3;2.4
45788;PMS7003;31492;54.856;26.318;2023-06-14T16:06:41;4.1;3.2;2.5
45788;PMS7003;31492;54.856;26.318;2023-06-14T16:12:25;3.8;3.2;2.8
45788;PMS7003;31492;54.856;26.318;2023-06-14T16:16:41;3.9;3.3;2.7
45788;PMS7003;31492;54.856;26.318;2023-06-14T16:21:41;3.8;3.3;2.7
45788;PMS7003;31492;54.856;26.318;2023-06-14T16:26:40;3.9;3.4;2.9
45788;PMS7003;31492;54.856;26.318;2023-06-14T16:31:41;3.8;3;2.5
45788;PMS7003;31492;54.856;26.318;2023-06-14T16:36:45;4.1;3.7;2.9
45788;PMS7003;31492;54.856;26.318;2023-06-14T16:42:20;3.7;3.2;2.4
45788;PMS7003;31492;54.856;26.318;2023-06-14T16:47:10;4;3.3;2.7
45788;PMS7003;31492;54.856;26.318;2023-06-14T16:52:24;3.5;3;2.4
45788;PMS7003;31492;54.856;26.318;2023-06-14T16:56:40;4.1;3.3;2.6
45788;PMS7003;31492;54.856;26.318;2023-06-14T17:02:05;4;3.5;2.8
45788;PMS7003;31492;54.856;26.318;2023-06-14T17:07:03;3.7;3.2;2.7
45788;PMS7003;31492;54.856;26.318;2023-06-14T17:11:55;3.9;3.1;2.5
45788;PMS7003;31492;54.856;26.318;2023-06-14T17:16:41;4.2;3.4;2.9
45788;PMS7003;31492;54.856;26.318;2023-06-14T17:21:51;4.5;3.5;3
45788;PMS7003;31492;54.856;26.318;2023-06-14T17:26:57;3.5;3.2;2.7
45788;PMS7003;31492;54.856;26.318;2023-06-14T17:31:41;3.7;3.2;2.6
45788;PMS7003;31492;54.856;26.318;2023-06-14T17:36:45;4;3.2;2.8
45788;PMS7003;31492;54.856;26.318;2023-06-14T17:42:05;4.4;4;3.3
45788;PMS7003;31492;54.856;26.318;2023-06-14T17:46:41;3.9;3.4;2.8
45788;PMS7003;31492;54.856;26.318;2023-06-14T17:51:51;4;3.8;3
45788;PMS7003;31492;54.856;26.318;2023-06-14T17:56:57;4.5;3.8;3.2
45788;PMS7003;31492;54.856;26.318;2023-06-14T18:01:41;4.4;4;3.4
45788;PMS7003;31492;54.856;26.318;2023-06-14T18:06:41;4.1;3.7;3.2
45788;PMS7003;31492;54.856;26.318;2023-06-14T18:11:41;5.1;3.9;3.3
45788;PMS7003;31492;54.856;26.318;2023-06-14T18:16:41;4.1;3.6;3.2
45788;PMS7003;31492;54.856;26.318;2023-06-14T18:21:55;5.2;4.2;3.4
45788;PMS7003;31492;54.856;26.318;2023-06-14T18:26:41;4.8;3.8;3.2
45788;PMS7003;31492;54.856;26.318;2023-06-14T18:32:01;5.2;4.4;3.8
45788;PMS7003;31492;54.856;26.318;2023-06-14T18:37:03;5.1;4.6;3.8
45788;PMS7003;31492;54.856;26.318;2023-06-14T18:41:41;5.5;4.9;3.8
45788;PMS7003;31492;54.856;26.318;2023-06-14T18:46:41;4.1;3.4;2.7
45788;PMS7003;31492;54.856;26.318;2023-06-14T18:51:55;4.3;3.6;2.8
45788;PMS7003;31492;54.856;26.318;2023-06-14T18:56:41;4.6;4.2;3.6
45788;PMS7003;31492;54.856;26.318;2023-06-14T19:02:05;6.3;4.9;4
45788;PMS7003;31492;54.856;26.318;2023-06-14T19:06:41;5.2;4.5;3.6
45788;PMS7003;31492;54.856;26.318;2023-06-14T19:11:59;5;4.4;3.8
45788;PMS7003;31492;54.856;26.318;2023-06-14T19:16:47;5.1;4.5;3.6
45788;PMS7003;31492;54.856;26.318;2023-06-14T19:21:41;4.8;4.3;3.6
45788;PMS7003;31492;54.856;26.318;2023-06-14T19:26:41;5.3;4.6;3.7
45788;PMS7003;31492;54.856;26.318;2023-06-14T19:31:41;5.5;4.6;3.5
45788;PMS7003;31492;54.856;26.318;2023-06-14T19:37:11;5.1;4.3;3.6
45788;PMS7003;31492;54.856;26.318;2023-06-14T19:41:41;5.2;4.4;3.9
45788;PMS7003;31492;54.856;26.318;2023-06-14T19:47:09;5.8;5.5;4.3
45788;PMS7003;31492;54.856;26.318;2023-06-14T19:51:41;5.4;4.8;4
45788;PMS7003;31492;54.856;26.318;2023-06-14T19:56:41;5.6;4.4;3.9
45788;PMS7003;31492;54.856;26.318;2023-06-14T20:01:51;5.2;4.7;3.8
45788;PMS7003;31492;54.856;26.318;2023-06-14T20:06:41;6.2;5.2;4.5
45788;PMS7003;31492;54.856;26.318;2023-06-14T20:11:41;5.1;4.7;4
45788;PMS7003;31492;54.856;26.318;2023-06-14T20:16:41;5.5;4.8;3.9
45788;PMS7003;31492;54.856;26.318;2023-06-14T20:21:49;5.6;5;4.3
45788;PMS7003;31492;54.856;26.318;2023-06-14T20:27:09;5.7;5.4;4.3
45788;PMS7003;31492;54.856;26.318;2023-06-14T20:31:55;6.6;5.6;4.9
45788;PMS7003;31492;54.856;26.318;2023-06-14T20:36:47;6.5;5.6;4.8
45788;PMS7003;31492;54.856;26.318;2023-06-14T20:41:41;6.4;5.7;4.8
45788;PMS7003;31492;54.856;26.318;2023-06-14T20:46:41;6.2;5.6;4.6
45788;PMS7003;31492;54.856;26.318;2023-06-14T20:51:47;7.2;6.5;5.4
45788;PMS7003;31492;54.856;26.318;2023-06-14T20:56:41;6;5.3;4.8
45788;PMS7003;31492;54.856;26.318;2023-06-14T21:01:41;6.2;5.9;4.8
45788;PMS7003;31492;54.856;26.318;2023-06-14T21:06:57;5.3;4.8;3.8
45788;PMS7003;31492;54.856;26.318;2023-06-14T21:11:53;6;5.6;4.9
45788;PMS7003;31492;54.856;26.318;2023-06-14T21:16:47;6.3;5.5;4.6
45788;PMS7003;31492;54.856;26.318;2023-06-14T21:21:41;6.7;5.9;4.9
45788;PMS7003;31492;54.856;26.318;2023-06-14T21:26:55;6.6;5.4;4.3
45788;PMS7003;31492;54.856;26.318;2023-06-14T21:31:41;6.6;6.2;5
